createdAt,value
2019-05-13T00:01:43.649Z,17.62
2019-05-13T00:04:10.445Z,18.82
2019-05-13T00:06:50.131Z,17.80
2019-05-13T00:09:06.475Z,19.48
2019-05-13T00:11:34.626Z,19.23
2019-05-13T00:14:04.368Z,18.45
2019-05-13T00:16:31.849Z,20.80
2019-05-13T00:19:00.041Z,19.17
2019-05-13T00:21:26.868Z,20.25
2019-05-13T00:23:53.661Z,17.95
2019-05-13T00:26:20.501Z,19.33
2019-05-13T00:28:47.290Z,18.07
2019-05-13T00:31:14.129Z,19.80
2019-05-13T00:33:40.963Z,19.30
2019-05-13T00:36:07.752Z,18.23
2019-05-13T00:38:34.585Z,16.20
2019-05-13T00:41:03.519Z,15.35
2019-05-13T00:43:30.728Z,16.30
2019-05-13T00:45:57.549Z,16.67
2019-05-13T00:48:24.333Z,17.17
2019-05-13T00:50:51.168Z,17.67
2019-05-13T00:53:17.944Z,16.20
2019-05-13T00:55:44.785Z,14.35
2019-05-13T00:58:13.753Z,15.32
2019-05-13T01:00:44.352Z,14.93
2019-05-13T01:03:13.901Z,15.13
2019-05-13T01:05:40.273Z,16.20
2019-05-13T01:08:07.116Z,16.80
2019-05-13T01:10:34.668Z,16.10
2019-05-13T01:13:04.308Z,14.65
2019-05-13T01:15:30.558Z,15.78
2019-05-13T01:17:57.384Z,15.30
2019-05-13T01:20:24.156Z,13.90
2019-05-13T01:22:53.979Z,14.93
2019-05-13T01:25:20.237Z,14.83
2019-05-13T01:27:47.015Z,14.00
2019-05-13T01:30:15.113Z,14.95
2019-05-13T01:32:44.612Z,15.60
2019-05-13T01:35:11.122Z,14.53
2019-05-13T01:37:42.361Z,13.80
2019-05-13T01:40:07.436Z,13.68
2019-05-13T01:42:34.273Z,14.30
2019-05-13T01:45:01.118Z,14.05
2019-05-13T01:47:27.969Z,12.80
2019-05-13T01:49:54.780Z,14.30
2019-05-13T01:52:23.653Z,14.00
2019-05-13T01:54:50.205Z,14.60
2019-05-13T01:57:17.041Z,15.80
2019-05-13T01:59:43.870Z,15.08
2019-05-13T02:02:10.713Z,16.62
2019-05-13T02:04:37.494Z,16.75
2019-05-13T02:07:04.455Z,16.65
2019-05-13T02:09:33.684Z,17.32
2019-05-13T02:12:00.276Z,16.00
2019-05-13T02:14:27.060Z,15.50
2019-05-13T02:16:53.918Z,13.40
2019-05-13T02:19:20.685Z,14.90
2019-05-13T02:21:47.520Z,15.75
2019-05-13T02:24:14.588Z,14.40
2019-05-13T02:26:43.706Z,14.85
2019-05-13T02:29:10.225Z,14.25
2019-05-13T02:31:45.377Z,15.10
2019-05-13T02:34:06.292Z,14.90
2019-05-13T02:36:33.297Z,14.18
2019-05-13T02:39:02.467Z,13.10
2019-05-13T02:41:28.804Z,12.28
2019-05-13T02:43:55.649Z,12.30
2019-05-13T02:46:22.750Z,12.20
2019-05-13T02:48:52.528Z,12.07
2019-05-13T02:51:18.334Z,13.03
2019-05-13T02:53:45.173Z,12.63
2019-05-13T02:56:11.950Z,12.20
2019-05-13T02:58:42.550Z,11.78
2019-05-13T03:01:07.386Z,12.90
2019-05-13T03:03:34.214Z,11.50
2019-05-13T03:06:02.927Z,12.98
2019-05-13T03:08:41.042Z,11.80
2019-05-13T03:10:58.285Z,11.70
2019-05-13T03:13:25.120Z,12.33
2019-05-13T03:16:02.525Z,13.55
2019-05-13T03:18:28.370Z,12.30
2019-05-13T03:20:55.164Z,11.63
2019-05-13T03:23:22.916Z,13.40
2019-05-13T03:25:53.303Z,12.95
2019-05-13T03:28:18.664Z,12.90
2019-05-13T03:30:46.313Z,11.30
2019-05-13T03:33:18.594Z,14.50
2019-05-13T03:35:45.725Z,14.80
2019-05-13T03:38:12.747Z,14.00
2019-05-13T03:40:42.587Z,14.68
2019-05-13T03:43:12.582Z,14.43
2019-05-13T03:45:38.894Z,12.80
2019-05-13T03:48:05.736Z,13.60
2019-05-13T03:50:34.633Z,13.75
2019-05-13T03:53:03.000Z,13.90
2019-05-13T03:55:32.888Z,14.30
2019-05-13T03:58:02.588Z,14.73
2019-05-13T04:00:28.581Z,14.90
2019-05-13T04:02:55.414Z,19.37
2019-05-13T04:05:23.208Z,19.67
2019-05-13T04:07:52.315Z,19.32
2019-05-13T04:10:22.420Z,17.00
2019-05-13T04:12:47.970Z,14.20
2019-05-13T04:15:15.198Z,14.87
2019-05-13T04:17:42.911Z,14.30
2019-05-13T04:20:12.635Z,13.93
2019-05-13T04:22:42.309Z,15.83
2019-05-13T04:25:08.145Z,17.52
2019-05-13T04:27:34.925Z,15.00
2019-05-13T04:30:03.511Z,14.00
2019-05-13T04:32:33.464Z,16.17
2019-05-13T04:34:59.352Z,15.23
2019-05-13T04:37:26.182Z,14.35
2019-05-13T04:39:56.290Z,14.13
2019-05-13T04:42:23.204Z,13.62
2019-05-13T04:44:52.945Z,14.05
2019-05-13T04:47:18.836Z,14.15
2019-05-13T04:49:45.618Z,13.50
2019-05-13T04:52:13.655Z,15.50
2019-05-13T04:54:43.347Z,12.13
2019-05-13T04:57:12.296Z,14.50
2019-05-13T04:59:44.193Z,13.50
2019-05-13T05:02:39.983Z,12.60
2019-05-13T05:05:04.554Z,13.50
2019-05-13T05:08:07.168Z,13.28
2019-05-13T05:10:58.488Z,12.30
2019-05-13T05:14:02.870Z,13.80
2019-05-13T05:17:02.911Z,13.28
2019-05-13T05:20:03.810Z,12.80
2019-05-13T05:22:43.944Z,12.73
2019-05-13T05:25:46.376Z,13.88
2019-05-13T05:28:25.528Z,12.18
2019-05-13T05:31:29.520Z,11.57
2019-05-13T05:34:27.605Z,13.05
2019-05-13T05:37:04.354Z,12.07
2019-05-13T05:39:31.512Z,12.23
2019-05-13T05:41:58.664Z,11.90
2019-05-13T05:44:28.113Z,11.90
2019-05-13T05:46:58.102Z,12.28
2019-05-13T05:49:25.684Z,10.70
2019-05-13T05:52:01.777Z,10.68
2019-05-13T05:54:32.008Z,10.05
2019-05-13T05:57:01.290Z,10.10
2019-05-13T05:59:29.029Z,10.10
2019-05-13T06:01:56.101Z,10.00
2019-05-13T06:04:24.536Z,9.30
2019-05-13T06:06:53.881Z,10.65
2019-05-13T06:09:21.295Z,8.98
2019-05-13T06:11:48.312Z,9.80
2019-05-13T06:14:15.157Z,9.20
2019-05-13T06:16:42.671Z,9.30
2019-05-13T06:19:11.928Z,9.00
2019-05-13T06:21:38.215Z,7.70
2019-05-13T06:24:05.050Z,6.90
2019-05-13T06:26:31.840Z,7.15
2019-05-13T06:28:58.879Z,6.50
2019-05-13T06:31:25.807Z,7.60
2019-05-13T06:33:52.599Z,5.75
2019-05-13T06:36:21.947Z,6.58
2019-05-13T06:38:48.044Z,7.10
2019-05-13T06:41:15.649Z,7.03
2019-05-13T06:43:42.489Z,7.00
2019-05-13T06:46:09.265Z,6.58
2019-05-13T06:48:36.097Z,6.80
2019-05-13T06:51:02.883Z,7.05
2019-05-13T06:53:32.067Z,6.78
2019-05-13T06:55:58.296Z,7.00
2019-05-13T06:58:25.145Z,6.87
2019-05-13T07:00:52.008Z,7.47
2019-05-13T07:03:21.780Z,7.23
2019-05-13T07:05:47.697Z,5.90
2019-05-13T07:08:14.534Z,7.08
2019-05-13T07:10:41.568Z,6.20
2019-05-13T07:13:11.067Z,6.05
2019-05-13T07:15:37.556Z,6.00
2019-05-13T07:18:04.388Z,5.70
2019-05-13T07:20:32.182Z,5.50
2019-05-13T07:23:01.659Z,5.20
2019-05-13T07:25:27.845Z,5.10
2019-05-13T07:27:54.748Z,5.20
2019-05-13T07:30:36.997Z,5.35
2019-05-13T07:33:03.888Z,4.93
2019-05-13T07:35:36.324Z,4.90
2019-05-13T07:38:02.220Z,7.65
2019-05-13T07:40:28.868Z,4.15
2019-05-13T07:42:55.712Z,4.30
2019-05-13T07:45:22.505Z,4.90
2019-05-13T07:47:51.811Z,4.27
2019-05-13T07:50:17.925Z,5.45
2019-05-13T07:52:45.105Z,4.85
2019-05-13T07:55:13.553Z,3.58
2019-05-13T07:57:42.330Z,3.42
2019-05-13T08:00:12.360Z,4.60
2019-05-13T08:02:38.822Z,4.20
2019-05-13T08:05:06.276Z,3.57
2019-05-13T08:07:33.072Z,3.20
2019-05-13T08:10:02.941Z,3.35
2019-05-13T08:12:28.508Z,3.85
2019-05-13T08:14:55.800Z,11.15
2019-05-13T08:17:22.696Z,3.27
2019-05-13T08:19:51.866Z,3.60
2019-05-13T08:22:18.168Z,5.78
2019-05-13T08:24:45.020Z,5.10
2019-05-13T08:27:11.947Z,3.50
2019-05-13T08:29:38.685Z,3.73
2019-05-13T08:32:05.518Z,3.45
2019-05-13T08:34:33.139Z,3.12
2019-05-13T08:37:02.993Z,3.33
2019-05-13T08:39:35.770Z,3.70
2019-05-13T08:42:11.722Z,4.17
2019-05-13T08:44:26.058Z,5.37
2019-05-13T08:46:53.296Z,2.80
2019-05-13T08:49:21.988Z,5.30
2019-05-13T08:51:48.725Z,4.45
2019-05-13T08:54:15.512Z,6.03
2019-05-13T08:56:42.369Z,5.25
2019-05-13T08:59:11.568Z,3.75
2019-05-13T09:01:38.544Z,4.47
2019-05-13T09:04:05.320Z,5.20
2019-05-13T09:06:32.983Z,3.52
2019-05-13T09:09:01.810Z,3.95
2019-05-13T09:11:28.517Z,3.35
2019-05-13T09:13:55.336Z,4.90
2019-05-13T09:16:22.116Z,6.20
2019-05-13T09:18:51.808Z,5.92
2019-05-13T09:21:17.629Z,4.80
2019-05-13T09:23:44.883Z,6.05
2019-05-13T09:26:12.133Z,3.40
2019-05-13T09:28:41.557Z,4.58
2019-05-13T09:31:07.591Z,2.70
2019-05-13T09:33:34.426Z,2.92
2019-05-13T09:36:02.198Z,4.92
2019-05-13T09:38:29.378Z,2.72
2019-05-13T09:40:56.210Z,3.83
2019-05-13T09:43:23.064Z,2.20
2019-05-13T09:45:52.054Z,4.45
2019-05-13T09:48:18.473Z,5.30
2019-05-13T09:50:45.310Z,3.47
2019-05-13T09:53:12.145Z,4.60
2019-05-13T09:55:41.342Z,3.73
2019-05-13T09:58:07.593Z,4.08
2019-05-13T10:00:36.968Z,3.97
2019-05-13T10:03:03.721Z,4.37
2019-05-13T10:05:31.659Z,3.70
2019-05-13T10:07:58.744Z,4.20
2019-05-13T10:10:25.529Z,4.33
2019-05-13T10:13:08.287Z,4.12
2019-05-13T10:15:22.124Z,3.47
2019-05-13T10:17:49.019Z,7.20
2019-05-13T10:20:21.071Z,3.60
2019-05-13T10:22:48.161Z,5.20
2019-05-13T10:25:17.312Z,3.75
2019-05-13T10:27:44.591Z,4.28
2019-05-13T10:30:13.262Z,2.87
2019-05-13T10:32:42.592Z,4.12
2019-05-13T10:35:09.341Z,4.60
2019-05-13T10:37:36.189Z,3.95
2019-05-13T10:40:04.081Z,3.00
2019-05-13T10:42:30.860Z,4.00
2019-05-13T10:44:57.707Z,2.87
2019-05-13T10:47:24.548Z,2.22
2019-05-13T10:49:52.303Z,4.00
2019-05-13T10:52:19.509Z,3.20
2019-05-13T10:54:46.291Z,3.20
2019-05-13T10:57:13.702Z,3.12
2019-05-13T10:59:40.809Z,3.83
2019-05-13T11:02:07.840Z,4.80
2019-05-13T11:04:34.627Z,4.35
2019-05-13T11:07:03.007Z,2.67
2019-05-13T11:09:32.470Z,2.75
2019-05-13T11:12:01.833Z,3.95
2019-05-13T11:14:27.319Z,3.10
2019-05-13T11:16:54.100Z,5.03
2019-05-13T11:19:23.124Z,3.40
2019-05-13T11:21:50.932Z,6.25
2019-05-13T11:24:17.861Z,4.40
2019-05-13T11:26:44.700Z,3.20
2019-05-13T11:29:12.115Z,3.30
2019-05-13T11:31:39.140Z,6.30
2019-05-13T11:34:05.941Z,3.27
2019-05-13T11:36:33.695Z,5.53
2019-05-13T11:39:03.058Z,3.90
2019-05-13T11:41:29.441Z,4.67
2019-05-13T11:44:12.060Z,5.97
2019-05-13T11:46:24.820Z,5.50
2019-05-13T11:48:52.043Z,3.65
2019-05-13T11:51:19.352Z,3.95
2019-05-13T11:53:46.355Z,3.92
2019-05-13T11:56:13.141Z,3.10
2019-05-13T11:58:43.083Z,4.37
2019-05-13T12:01:08.819Z,3.47
2019-05-13T12:03:35.644Z,3.12
2019-05-13T12:06:02.785Z,10.03
2019-05-13T12:08:33.117Z,4.80
2019-05-13T12:10:58.459Z,4.33
2019-05-13T12:13:25.302Z,2.45
2019-05-13T12:15:54.454Z,3.65
2019-05-13T12:18:23.679Z,4.95
2019-05-13T12:20:53.602Z,2.58
2019-05-13T12:23:18.344Z,3.42
2019-05-13T12:25:45.130Z,2.50
2019-05-13T12:28:11.964Z,1.98
2019-05-13T12:30:39.286Z,2.60
2019-05-13T12:33:07.407Z,4.30
2019-05-13T12:35:34.281Z,6.17
2019-05-13T12:38:01.113Z,5.10
2019-05-13T12:40:27.892Z,3.98
2019-05-13T12:42:55.536Z,2.40
2019-05-13T12:45:22.573Z,4.22
2019-05-13T12:47:49.573Z,2.75
2019-05-13T12:50:23.659Z,5.15
2019-05-13T12:52:51.493Z,4.22
2019-05-13T12:55:18.000Z,3.90
2019-05-13T12:57:44.784Z,3.50
2019-05-13T13:00:13.653Z,3.65
2019-05-13T13:02:40.464Z,3.83
2019-05-13T13:05:13.471Z,2.70
2019-05-13T13:07:41.312Z,3.17
2019-05-13T13:10:05.131Z,3.17
2019-05-13T13:12:36.028Z,4.67
2019-05-13T13:15:20.379Z,2.55
2019-05-13T13:17:29.224Z,3.27
2019-05-13T13:20:04.699Z,3.70
2019-05-13T13:22:25.528Z,2.65
2019-05-13T13:24:57.120Z,2.27
2019-05-13T13:27:37.782Z,2.62
2019-05-13T13:30:01.697Z,2.52
2019-05-13T13:32:18.612Z,3.65
2019-05-13T13:34:45.449Z,3.60
2019-05-13T13:37:12.328Z,2.92
2019-05-13T13:39:43.213Z,2.42
2019-05-13T13:42:08.357Z,3.08
2019-05-13T13:44:35.326Z,5.60
2019-05-13T13:47:02.192Z,3.92
2019-05-13T13:49:33.735Z,3.27
2019-05-13T13:51:57.607Z,2.47
2019-05-13T13:54:24.389Z,6.95
2019-05-13T13:56:55.834Z,2.80
2019-05-13T13:59:24.542Z,1.80
2019-05-13T14:01:53.665Z,3.23
2019-05-13T14:04:17.589Z,3.12
2019-05-13T14:09:13.021Z,4.78
2019-05-13T14:11:41.983Z,4.10
2019-05-13T14:14:08.533Z,2.58
2019-05-13T14:16:35.668Z,4.10
2019-05-13T14:19:02.794Z,2.75
2019-05-13T14:21:32.268Z,2.33
2019-05-13T14:23:58.719Z,2.80
2019-05-13T14:26:25.513Z,4.47
2019-05-13T14:28:53.694Z,4.70
2019-05-13T14:31:21.416Z,3.52
2019-05-13T14:33:48.550Z,3.60
2019-05-13T14:36:15.628Z,3.35
2019-05-13T14:38:42.410Z,2.80
2019-05-13T14:41:12.292Z,3.62
2019-05-13T14:43:38.801Z,2.75
2019-05-13T14:46:05.642Z,3.25
2019-05-13T14:48:33.113Z,5.75
2019-05-13T14:51:01.894Z,4.10
2019-05-13T14:53:28.764Z,3.70
2019-05-13T14:55:55.621Z,2.30
2019-05-13T14:58:22.449Z,4.37
2019-05-13T15:01:06.999Z,2.80
2019-05-13T15:03:17.912Z,4.17
2019-05-13T15:05:44.693Z,3.90
2019-05-13T15:08:11.495Z,4.00
2019-05-13T15:10:38.669Z,1.67
2019-05-13T15:13:05.462Z,2.40
2019-05-13T15:15:32.397Z,3.02
2019-05-13T15:18:01.275Z,3.25
2019-05-13T15:20:28.036Z,2.20
2019-05-13T15:22:54.817Z,2.25
2019-05-13T15:25:22.194Z,3.20
2019-05-13T15:27:49.448Z,4.08
2019-05-13T15:30:18.053Z,2.70
2019-05-13T15:32:44.889Z,1.60
2019-05-13T15:35:13.409Z,2.98
2019-05-13T15:37:41.753Z,3.00
2019-05-13T15:40:11.528Z,3.20
2019-05-13T15:42:37.737Z,2.75
2019-05-13T15:45:07.130Z,2.67
2019-05-13T15:47:33.986Z,2.90
2019-05-13T15:50:02.400Z,3.27
2019-05-13T15:52:31.681Z,2.00
2019-05-13T15:54:58.081Z,1.60
2019-05-13T15:57:24.858Z,4.10
2019-05-13T15:59:51.881Z,3.37
2019-05-13T16:02:18.800Z,2.77
2019-05-13T16:04:52.719Z,3.10
2019-05-13T16:07:14.205Z,2.10
2019-05-13T16:09:42.024Z,2.25
2019-05-13T16:12:09.200Z,1.70
2019-05-13T16:14:36.055Z,3.62
2019-05-13T16:17:03.005Z,3.67
2019-05-13T16:19:32.674Z,8.53
2019-05-13T16:22:01.339Z,4.45
2019-05-13T16:24:28.064Z,1.90
2019-05-13T16:26:55.013Z,2.30
2019-05-13T16:29:22.409Z,2.55
2019-05-13T16:31:51.392Z,3.30
2019-05-13T16:34:18.371Z,4.75
2019-05-13T16:36:45.326Z,2.80
2019-05-13T16:39:12.509Z,2.92
2019-05-13T16:41:39.533Z,6.70
2019-05-13T16:44:06.432Z,2.70
2019-05-13T16:46:33.286Z,3.00
2019-05-13T16:49:01.394Z,1.77
2019-05-13T16:51:28.420Z,3.60
2019-05-13T16:53:55.267Z,1.80
2019-05-13T16:56:27.773Z,3.80
2019-05-13T16:58:52.163Z,2.10
2019-05-13T17:01:19.150Z,5.03
2019-05-13T17:03:45.996Z,1.62
2019-05-13T17:06:12.914Z,3.55
2019-05-13T17:08:42.215Z,1.95
2019-05-13T17:11:08.505Z,2.72
2019-05-13T17:13:35.350Z,7.20
2019-05-13T17:16:02.185Z,3.10
2019-05-13T17:18:28.969Z,3.50
2019-05-13T17:20:55.813Z,3.37
2019-05-13T17:23:22.599Z,3.17
2019-05-13T17:25:51.825Z,2.60
2019-05-13T17:28:18.082Z,3.80
2019-05-13T17:30:44.931Z,3.75
2019-05-13T17:33:11.867Z,2.57
2019-05-13T17:35:38.856Z,3.22
2019-05-13T17:38:05.642Z,3.17
2019-05-13T17:40:32.481Z,3.30
2019-05-13T17:42:59.256Z,2.17
2019-05-13T17:45:26.112Z,2.00
2019-05-13T17:47:52.892Z,3.70
2019-05-13T17:50:22.078Z,3.27
2019-05-13T17:52:51.221Z,2.70
2019-05-13T17:55:17.761Z,2.08
2019-05-13T17:57:44.629Z,2.05
2019-05-13T18:00:13.713Z,3.22
2019-05-13T18:02:42.011Z,2.60
2019-05-13T18:05:12.011Z,1.90
2019-05-13T18:07:39.160Z,2.40
2019-05-13T18:10:06.504Z,2.12
2019-05-13T18:12:33.288Z,2.87
2019-05-13T18:15:02.250Z,3.83
2019-05-13T18:17:31.174Z,1.50
2019-05-13T18:19:58.201Z,2.55
2019-05-13T18:22:25.021Z,1.25
2019-05-13T18:24:52.016Z,2.40
2019-05-13T18:27:18.977Z,1.32
2019-05-13T18:29:45.825Z,1.20
2019-05-13T18:32:12.708Z,2.50
2019-05-13T18:34:39.496Z,4.00
2019-05-13T18:37:06.333Z,1.75
2019-05-13T18:39:33.267Z,1.50
2019-05-13T18:42:01.340Z,3.20
2019-05-13T18:44:28.124Z,2.47
2019-05-13T18:46:54.961Z,1.80
2019-05-13T18:49:21.800Z,2.17
2019-05-13T18:51:48.581Z,2.10
2019-05-13T18:54:15.425Z,2.83
2019-05-13T18:56:42.202Z,1.37
2019-05-13T18:59:09.073Z,2.00
2019-05-13T19:01:35.857Z,2.10
2019-05-13T19:04:02.697Z,2.30
2019-05-13T19:06:31.613Z,2.08
2019-05-13T19:08:58.114Z,3.67
2019-05-13T19:11:24.897Z,2.70
2019-05-13T19:13:52.200Z,2.50
2019-05-13T19:16:21.213Z,3.80
2019-05-13T19:18:47.745Z,1.60
2019-05-13T19:21:14.536Z,2.80
2019-05-13T19:23:41.922Z,3.52
2019-05-13T19:26:11.141Z,4.42
2019-05-13T19:28:37.509Z,1.60
2019-05-13T19:31:04.340Z,2.20
2019-05-13T19:33:31.306Z,1.87
2019-05-13T19:35:58.310Z,1.67
2019-05-13T19:38:25.196Z,2.90
2019-05-13T19:40:51.998Z,2.87
2019-05-13T19:43:18.834Z,3.27
2019-05-13T19:45:45.617Z,3.50
2019-05-13T19:48:12.452Z,3.90
2019-05-13T19:50:41.397Z,3.08
2019-05-13T19:53:07.870Z,4.25
2019-05-13T19:55:34.694Z,3.10
2019-05-13T19:58:01.853Z,7.30
2019-05-13T20:00:31.537Z,5.55
2019-05-13T20:02:57.997Z,5.20
2019-05-13T20:05:24.833Z,4.85
2019-05-13T20:07:52.284Z,3.45
2019-05-13T20:10:19.352Z,3.95
2019-05-13T20:12:46.144Z,3.10
2019-05-13T20:15:13.385Z,5.10
2019-05-13T20:17:41.595Z,2.75
2019-05-13T20:20:08.612Z,3.72
2019-05-13T20:22:35.404Z,3.02
2019-05-13T20:25:02.540Z,3.03
2019-05-13T20:27:31.553Z,5.40
2019-05-13T20:29:57.964Z,2.35
2019-05-13T20:32:25.763Z,3.65
2019-05-13T20:34:52.542Z,2.52
2019-05-13T20:37:21.393Z,5.45
2019-05-13T20:39:48.377Z,3.92
2019-05-13T20:42:15.204Z,3.77
2019-05-13T20:44:42.130Z,2.40
2019-05-13T20:47:09.115Z,3.47
2019-05-13T20:49:36.065Z,3.05
2019-05-13T20:52:03.105Z,3.22
2019-05-13T20:54:31.384Z,2.53
2019-05-13T20:56:58.530Z,2.60
2019-05-13T20:59:25.427Z,3.25
2019-05-13T21:01:52.248Z,2.20
2019-05-13T21:04:21.382Z,4.58
2019-05-13T21:06:47.773Z,2.30
2019-05-13T21:09:17.108Z,3.72
2019-05-13T21:11:43.608Z,3.55
2019-05-13T21:14:10.386Z,2.33
2019-05-13T21:16:37.218Z,3.52
2019-05-13T21:19:04.057Z,2.60
2019-05-13T21:21:31.178Z,4.40
2019-05-13T21:23:57.972Z,3.60
2019-05-13T21:26:24.810Z,2.52
2019-05-13T21:28:52.208Z,3.02
2019-05-13T21:31:21.358Z,3.85
2019-05-13T21:33:47.808Z,3.60
2019-05-13T21:36:14.589Z,4.25
2019-05-13T21:38:41.425Z,4.05
2019-05-13T21:41:08.219Z,5.03
2019-05-13T21:43:35.035Z,3.67
2019-05-13T21:46:02.152Z,2.50
2019-05-13T21:48:29.112Z,3.80
2019-05-13T21:50:55.957Z,3.92
2019-05-13T21:53:24.500Z,4.80
2019-05-13T21:55:52.077Z,3.70
2019-05-13T21:58:19.053Z,4.60
2019-05-13T22:00:47.105Z,2.50
2019-05-13T22:03:13.852Z,3.10
2019-05-13T22:05:40.634Z,2.30
2019-05-13T22:08:07.477Z,2.60
2019-05-13T22:10:34.364Z,4.85
2019-05-13T22:13:01.533Z,3.85
2019-05-13T22:15:32.296Z,2.60
2019-05-13T22:17:58.928Z,3.60
2019-05-13T22:20:25.712Z,2.30
2019-05-13T22:22:53.548Z,3.72
2019-05-13T22:25:20.332Z,2.40
2019-05-13T22:27:47.208Z,4.03
2019-05-13T22:30:14.789Z,2.83
2019-05-13T22:32:41.841Z,2.37
2019-05-13T22:35:11.059Z,4.00
2019-05-13T22:37:37.702Z,4.00
2019-05-13T22:40:04.629Z,2.47
2019-05-13T22:42:32.230Z,3.13
2019-05-13T22:44:59.404Z,2.27
2019-05-13T22:47:26.193Z,2.85
2019-05-13T22:49:53.032Z,3.27
2019-05-13T22:52:21.776Z,1.82
2019-05-13T22:54:48.441Z,2.70
2019-05-13T22:57:17.124Z,2.80
2019-05-13T22:59:43.970Z,2.87
2019-05-13T23:02:10.904Z,2.25
2019-05-13T23:04:37.687Z,2.52
2019-05-13T23:07:04.513Z,1.80
2019-05-13T23:09:32.155Z,3.17
2019-05-13T23:11:59.133Z,3.15
2019-05-13T23:14:25.952Z,3.62
2019-05-13T23:16:53.485Z,3.33
2019-05-13T23:19:21.726Z,3.00
2019-05-13T23:21:51.003Z,3.60
2019-05-13T23:24:17.348Z,2.30
2019-05-13T23:26:44.133Z,3.12
2019-05-13T23:29:11.528Z,2.30
2019-05-13T23:31:38.314Z,2.10
2019-05-13T23:34:05.149Z,2.55
2019-05-13T23:36:31.993Z,1.70
2019-05-13T23:39:00.926Z,2.70
2019-05-13T23:41:27.368Z,3.20
2019-05-13T23:43:54.205Z,2.37
2019-05-13T23:46:22.281Z,2.40
2019-05-13T23:48:49.221Z,3.58
2019-05-13T23:51:16.053Z,2.20
2019-05-13T23:53:42.831Z,2.17
2019-05-13T23:56:11.209Z,3.52
2019-05-13T23:58:38.057Z,2.72
